sensor_id;sensor_type;location;lat;lon;timestamp;P1;durP1;ratioP1;P2;durP2;ratioP2
14096;SDS011;7125;48.106;11.544;2023-04-03T00:02:05;9.80;;;8.90;;
14096;SDS011;7125;48.106;11.544;2023-04-03T00:04:32;11.93;;;10.17;;
14096;SDS011;7125;48.106;11.544;2023-04-03T00:07:00;16.03;;;11.23;;
14096;SDS011;7125;48.106;11.544;2023-04-03T00:09:27;11.83;;;9.97;;
14096;SDS011;7125;48.106;11.544;2023-04-03T00:11:54;15.57;;;10.90;;
14096;SDS011;7125;48.106;11.544;2023-04-03T00:14:24;13.73;;;9.73;;
14096;SDS011;7125;48.106;11.544;2023-04-03T00:16:54;11.73;;;9.67;;
14096;SDS011;7125;48.106;11.544;2023-04-03T00:19:23;9.87;;;8.90;;
14096;SDS011;7125;48.106;11.544;2023-04-03T00:21:52;12.70;;;9.60;;
14096;SDS011;7125;48.106;11.544;2023-04-03T00:24:23;11.57;;;9.70;;
14096;SDS011;7125;48.106;11.544;2023-04-03T00:26:50;10.63;;;9.53;;
14096;SDS011;7125;48.106;11.544;2023-04-03T00:29:20;13.60;;;9.77;;
14096;SDS011;7125;48.106;11.544;2023-04-03T00:31:49;10.67;;;9.57;;
14096;SDS011;7125;48.106;11.544;2023-04-03T00:34:16;12.30;;;9.30;;
14096;SDS011;7125;48.106;11.544;2023-04-03T00:36:43;12.20;;;10.40;;
14096;SDS011;7125;48.106;11.544;2023-04-03T00:39:10;12.70;;;8.97;;
14096;SDS011;7125;48.106;11.544;2023-04-03T00:41:37;11.77;;;10.40;;
14096;SDS011;7125;48.106;11.544;2023-04-03T00:44:18;13.93;;;9.57;;
14096;SDS011;7125;48.106;11.544;2023-04-03T00:46:50;10.17;;;9.10;;
14096;SDS011;7125;48.106;11.544;2023-04-03T00:49:17;13.37;;;10.60;;
14096;SDS011;7125;48.106;11.544;2023-04-03T00:51:44;11.73;;;9.47;;
14096;SDS011;7125;48.106;11.544;2023-04-03T00:54:12;9.20;;;8.30;;
14096;SDS011;7125;48.106;11.544;2023-04-03T00:56:40;10.93;;;9.10;;
14096;SDS011;7125;48.106;11.544;2023-04-03T00:59:10;10.40;;;9.00;;
14096;SDS011;7125;48.106;11.544;2023-04-03T01:01:40;11.13;;;9.10;;
14096;SDS011;7125;48.106;11.544;2023-04-03T01:06:56;10.63;;;8.77;;
14096;SDS011;7125;48.106;11.544;2023-04-03T01:09:38;10.73;;;9.13;;
14096;SDS011;7125;48.106;11.544;2023-04-03T01:12:22;9.57;;;8.37;;
14096;SDS011;7125;48.106;11.544;2023-04-03T01:14:51;11.83;;;10.63;;
14096;SDS011;7125;48.106;11.544;2023-04-03T01:17:30;9.47;;;8.57;;
14096;SDS011;7125;48.106;11.544;2023-04-03T01:23:20;9.30;;;8.40;;
14096;SDS011;7125;48.106;11.544;2023-04-03T01:25:54;9.47;;;8.27;;
14096;SDS011;7125;48.106;11.544;2023-04-03T01:28:27;11.00;;;9.90;;
14096;SDS011;7125;48.106;11.544;2023-04-03T01:31:08;11.80;;;9.60;;
14096;SDS011;7125;48.106;11.544;2023-04-03T01:33:50;11.63;;;9.20;;
14096;SDS011;7125;48.106;11.544;2023-04-03T01:36:20;14.20;;;9.43;;
14096;SDS011;7125;48.106;11.544;2023-04-03T01:38:50;10.57;;;8.90;;
14096;SDS011;7125;48.106;11.544;2023-04-03T01:41:22;11.33;;;9.90;;
14096;SDS011;7125;48.106;11.544;2023-04-03T01:44:08;10.30;;;9.20;;
14096;SDS011;7125;48.106;11.544;2023-04-03T01:46:52;11.60;;;10.27;;
14096;SDS011;7125;48.106;11.544;2023-04-03T01:49:41;10.13;;;9.00;;
14096;SDS011;7125;48.106;11.544;2023-04-03T01:52:13;11.73;;;9.83;;
14096;SDS011;7125;48.106;11.544;2023-04-03T01:54:44;11.90;;;9.27;;
14096;SDS011;7125;48.106;11.544;2023-04-03T01:57:25;15.43;;;9.53;;
14096;SDS011;7125;48.106;11.544;2023-04-03T01:59:54;9.70;;;8.77;;
14096;SDS011;7125;48.106;11.544;2023-04-03T02:02:40;10.57;;;9.43;;
14096;SDS011;7125;48.106;11.544;2023-04-03T02:05:32;10.57;;;8.60;;
14096;SDS011;7125;48.106;11.544;2023-04-03T02:08:11;10.97;;;9.60;;
14096;SDS011;7125;48.106;11.544;2023-04-03T02:10:40;11.27;;;9.60;;
14096;SDS011;7125;48.106;11.544;2023-04-03T02:13:13;11.63;;;9.17;;
14096;SDS011;7125;48.106;11.544;2023-04-03T02:15:47;12.83;;;8.67;;
14096;SDS011;7125;48.106;11.544;2023-04-03T02:18:56;13.47;;;9.47;;
14096;SDS011;7125;48.106;11.544;2023-04-03T02:21:34;10.10;;;9.00;;
14096;SDS011;7125;48.106;11.544;2023-04-03T02:24:16;12.50;;;9.57;;
14096;SDS011;7125;48.106;11.544;2023-04-03T02:26:59;9.60;;;8.70;;
14096;SDS011;7125;48.106;11.544;2023-04-03T02:29:54;14.43;;;8.93;;
14096;SDS011;7125;48.106;11.544;2023-04-03T02:32:46;10.27;;;9.23;;
14096;SDS011;7125;48.106;11.544;2023-04-03T02:35:15;12.47;;;9.77;;
14096;SDS011;7125;48.106;11.544;2023-04-03T02:38:20;13.37;;;8.67;;
14096;SDS011;7125;48.106;11.544;2023-04-03T02:40:59;9.80;;;8.03;;
14096;SDS011;7125;48.106;11.544;2023-04-03T02:43:27;10.63;;;8.73;;
14096;SDS011;7125;48.106;11.544;2023-04-03T02:45:54;8.80;;;7.90;;
14096;SDS011;7125;48.106;11.544;2023-04-03T02:48:21;8.30;;;7.50;;
14096;SDS011;7125;48.106;11.544;2023-04-03T02:50:48;11.27;;;7.27;;
14096;SDS011;7125;48.106;11.544;2023-04-03T02:53:17;9.07;;;6.93;;
14096;SDS011;7125;48.106;11.544;2023-04-03T02:55:44;9.33;;;7.40;;
14096;SDS011;7125;48.106;11.544;2023-04-03T02:58:13;8.23;;;7.00;;
14096;SDS011;7125;48.106;11.544;2023-04-03T03:00:40;8.63;;;6.90;;
14096;SDS011;7125;48.106;11.544;2023-04-03T03:03:15;8.33;;;6.40;;
14096;SDS011;7125;48.106;11.544;2023-04-03T03:05:45;8.87;;;5.97;;
14096;SDS011;7125;48.106;11.544;2023-04-03T03:08:20;7.13;;;6.23;;
14096;SDS011;7125;48.106;11.544;2023-04-03T03:11:08;5.93;;;5.40;;
14096;SDS011;7125;48.106;11.544;2023-04-03T03:13:54;7.43;;;5.87;;
14096;SDS011;7125;48.106;11.544;2023-04-03T03:16:29;5.37;;;4.87;;
14096;SDS011;7125;48.106;11.544;2023-04-03T03:19:18;5.63;;;5.03;;
14096;SDS011;7125;48.106;11.544;2023-04-03T03:21:46;8.73;;;6.33;;
14096;SDS011;7125;48.106;11.544;2023-04-03T03:24:14;5.33;;;4.90;;
14096;SDS011;7125;48.106;11.544;2023-04-03T03:26:42;8.53;;;6.23;;
14096;SDS011;7125;48.106;11.544;2023-04-03T03:29:10;5.33;;;4.83;;
14096;SDS011;7125;48.106;11.544;2023-04-03T03:31:37;6.30;;;4.97;;
14096;SDS011;7125;48.106;11.544;2023-04-03T03:34:05;6.43;;;5.00;;
14096;SDS011;7125;48.106;11.544;2023-04-03T03:36:32;5.97;;;4.93;;
14096;SDS011;7125;48.106;11.544;2023-04-03T03:39:01;5.40;;;4.87;;
14096;SDS011;7125;48.106;11.544;2023-04-03T03:41:30;6.43;;;5.57;;
14096;SDS011;7125;48.106;11.544;2023-04-03T03:43:57;5.50;;;4.67;;
14096;SDS011;7125;48.106;11.544;2023-04-03T03:46:27;7.13;;;5.20;;
14096;SDS011;7125;48.106;11.544;2023-04-03T03:48:54;4.80;;;4.40;;
14096;SDS011;7125;48.106;11.544;2023-04-03T03:51:21;6.00;;;5.43;;
14096;SDS011;7125;48.106;11.544;2023-04-03T03:53:49;5.13;;;4.03;;
14096;SDS011;7125;48.106;11.544;2023-04-03T03:56:18;7.13;;;4.70;;
14096;SDS011;7125;48.106;11.544;2023-04-03T03:58:47;4.70;;;4.30;;
14096;SDS011;7125;48.106;11.544;2023-04-03T04:01:14;4.47;;;4.07;;
14096;SDS011;7125;48.106;11.544;2023-04-03T04:03:46;5.03;;;4.53;;
14096;SDS011;7125;48.106;11.544;2023-04-03T04:06:19;7.20;;;4.03;;
14096;SDS011;7125;48.106;11.544;2023-04-03T04:08:47;7.07;;;4.47;;
14096;SDS011;7125;48.106;11.544;2023-04-03T04:11:14;4.97;;;4.50;;
14096;SDS011;7125;48.106;11.544;2023-04-03T04:13:43;6.13;;;3.77;;
14096;SDS011;7125;48.106;11.544;2023-04-03T04:16:14;4.10;;;3.70;;
14096;SDS011;7125;48.106;11.544;2023-04-03T04:18:42;4.53;;;4.13;;
14096;SDS011;7125;48.106;11.544;2023-04-03T04:21:10;4.27;;;3.87;;
14096;SDS011;7125;48.106;11.544;2023-04-03T04:23:42;5.00;;;4.30;;
14096;SDS011;7125;48.106;11.544;2023-04-03T04:26:46;4.13;;;3.73;;
14096;SDS011;7125;48.106;11.544;2023-04-03T04:29:23;4.13;;;3.80;;
14096;SDS011;7125;48.106;11.544;2023-04-03T04:35:31;3.73;;;3.43;;
14096;SDS011;7125;48.106;11.544;2023-04-03T04:38:03;6.67;;;3.93;;
14096;SDS011;7125;48.106;11.544;2023-04-03T04:40:36;4.97;;;4.13;;
14096;SDS011;7125;48.106;11.544;2023-04-03T04:43:24;5.47;;;3.80;;
14096;SDS011;7125;48.106;11.544;2023-04-03T04:46:10;4.37;;;3.97;;
14096;SDS011;7125;48.106;11.544;2023-04-03T04:48:45;4.57;;;4.17;;
14096;SDS011;7125;48.106;11.544;2023-04-03T04:51:16;4.67;;;4.00;;
14096;SDS011;7125;48.106;11.544;2023-04-03T04:53:46;3.90;;;3.53;;
14096;SDS011;7125;48.106;11.544;2023-04-03T04:59:33;6.00;;;4.60;;
14096;SDS011;7125;48.106;11.544;2023-04-03T05:03:08;3.87;;;3.47;;
14096;SDS011;7125;48.106;11.544;2023-04-03T05:05:47;5.33;;;4.83;;
14096;SDS011;7125;48.106;11.544;2023-04-03T05:08:16;5.50;;;4.07;;
14096;SDS011;7125;48.106;11.544;2023-04-03T05:10:44;4.23;;;3.90;;
14096;SDS011;7125;48.106;11.544;2023-04-03T05:13:12;3.87;;;3.57;;
14096;SDS011;7125;48.106;11.544;2023-04-03T05:15:40;4.33;;;3.93;;
14096;SDS011;7125;48.106;11.544;2023-04-03T05:18:08;6.67;;;4.13;;
14096;SDS011;7125;48.106;11.544;2023-04-03T05:20:35;3.70;;;3.40;;
14096;SDS011;7125;48.106;11.544;2023-04-03T05:23:04;4.73;;;4.20;;
14096;SDS011;7125;48.106;11.544;2023-04-03T05:25:49;4.30;;;3.90;;
14096;SDS011;7125;48.106;11.544;2023-04-03T05:28:34;5.40;;;3.90;;
14096;SDS011;7125;48.106;11.544;2023-04-03T05:31:14;3.83;;;3.53;;
14096;SDS011;7125;48.106;11.544;2023-04-03T05:33:52;3.97;;;3.53;;
14096;SDS011;7125;48.106;11.544;2023-04-03T05:36:29;4.33;;;3.73;;
14096;SDS011;7125;48.106;11.544;2023-04-03T05:39:22;5.87;;;4.17;;
14096;SDS011;7125;48.106;11.544;2023-04-03T05:41:53;3.30;;;2.90;;
14096;SDS011;7125;48.106;11.544;2023-04-03T05:44:49;7.00;;;4.13;;
14096;SDS011;7125;48.106;11.544;2023-04-03T05:47:18;4.60;;;3.83;;
14096;SDS011;7125;48.106;11.544;2023-04-03T05:50:29;4.47;;;3.53;;
14096;SDS011;7125;48.106;11.544;2023-04-03T05:53:19;3.63;;;3.37;;
14096;SDS011;7125;48.106;11.544;2023-04-03T05:56:06;5.10;;;3.30;;
14096;SDS011;7125;48.106;11.544;2023-04-03T05:58:50;3.63;;;3.23;;
14096;SDS011;7125;48.106;11.544;2023-04-03T06:01:59;6.73;;;4.40;;
14096;SDS011;7125;48.106;11.544;2023-04-03T06:04:42;4.37;;;3.87;;
14096;SDS011;7125;48.106;11.544;2023-04-03T06:07:23;4.33;;;3.70;;
14096;SDS011;7125;48.106;11.544;2023-04-03T06:09:58;4.07;;;3.67;;
14096;SDS011;7125;48.106;11.544;2023-04-03T06:12:26;3.83;;;3.53;;
14096;SDS011;7125;48.106;11.544;2023-04-03T06:14:57;4.13;;;3.73;;
14096;SDS011;7125;48.106;11.544;2023-04-03T06:17:24;3.03;;;2.70;;
14096;SDS011;7125;48.106;11.544;2023-04-03T06:19:52;3.77;;;3.47;;
14096;SDS011;7125;48.106;11.544;2023-04-03T06:22:19;3.33;;;3.03;;
14096;SDS011;7125;48.106;11.544;2023-04-03T06:24:46;4.23;;;3.43;;
14096;SDS011;7125;48.106;11.544;2023-04-03T06:27:13;3.63;;;3.27;;
14096;SDS011;7125;48.106;11.544;2023-04-03T06:29:40;4.77;;;3.53;;
14096;SDS011;7125;48.106;11.544;2023-04-03T06:32:11;4.30;;;3.40;;
14096;SDS011;7125;48.106;11.544;2023-04-03T06:34:38;4.03;;;3.60;;
14096;SDS011;7125;48.106;11.544;2023-04-03T06:37:05;5.07;;;3.50;;
14096;SDS011;7125;48.106;11.544;2023-04-03T06:39:32;9.30;;;3.60;;
14096;SDS011;7125;48.106;11.544;2023-04-03T06:42:00;3.80;;;3.20;;
14096;SDS011;7125;48.106;11.544;2023-04-03T06:44:35;3.63;;;3.33;;
14096;SDS011;7125;48.106;11.544;2023-04-03T06:47:02;5.77;;;3.33;;
14096;SDS011;7125;48.106;11.544;2023-04-03T06:49:31;3.40;;;3.10;;
14096;SDS011;7125;48.106;11.544;2023-04-03T06:51:58;4.03;;;3.10;;
14096;SDS011;7125;48.106;11.544;2023-04-03T06:54:25;3.23;;;2.90;;
14096;SDS011;7125;48.106;11.544;2023-04-03T06:56:52;4.57;;;3.70;;
14096;SDS011;7125;48.106;11.544;2023-04-03T06:59:19;3.53;;;3.23;;
14096;SDS011;7125;48.106;11.544;2023-04-03T07:01:46;7.50;;;4.23;;
14096;SDS011;7125;48.106;11.544;2023-04-03T07:04:14;3.50;;;3.17;;
14096;SDS011;7125;48.106;11.544;2023-04-03T07:06:42;5.00;;;3.83;;
14096;SDS011;7125;48.106;11.544;2023-04-03T07:09:09;3.50;;;3.20;;
14096;SDS011;7125;48.106;11.544;2023-04-03T07:11:36;4.73;;;2.70;;
14096;SDS011;7125;48.106;11.544;2023-04-03T07:14:03;4.63;;;3.53;;
14096;SDS011;7125;48.106;11.544;2023-04-03T07:16:31;3.57;;;3.27;;
14096;SDS011;7125;48.106;11.544;2023-04-03T07:18:58;4.23;;;3.43;;
14096;SDS011;7125;48.106;11.544;2023-04-03T07:21:26;3.53;;;3.23;;
14096;SDS011;7125;48.106;11.544;2023-04-03T07:23:55;3.07;;;2.47;;
14096;SDS011;7125;48.106;11.544;2023-04-03T07:26:23;3.13;;;2.77;;
14096;SDS011;7125;48.106;11.544;2023-04-03T07:28:50;3.07;;;2.73;;
14096;SDS011;7125;48.106;11.544;2023-04-03T07:31:17;2.80;;;2.50;;
14096;SDS011;7125;48.106;11.544;2023-04-03T07:33:46;4.23;;;3.00;;
14096;SDS011;7125;48.106;11.544;2023-04-03T07:36:14;5.37;;;3.13;;
14096;SDS011;7125;48.106;11.544;2023-04-03T07:38:43;3.80;;;3.50;;
14096;SDS011;7125;48.106;11.544;2023-04-03T07:41:12;5.00;;;3.60;;
14096;SDS011;7125;48.106;11.544;2023-04-03T07:43:42;4.57;;;3.03;;
14096;SDS011;7125;48.106;11.544;2023-04-03T07:46:10;4.37;;;3.17;;
14096;SDS011;7125;48.106;11.544;2023-04-03T07:48:37;3.70;;;3.40;;
14096;SDS011;7125;48.106;11.544;2023-04-03T07:51:04;4.10;;;3.33;;
14096;SDS011;7125;48.106;11.544;2023-04-03T07:53:33;4.30;;;3.67;;
14096;SDS011;7125;48.106;11.544;2023-04-03T07:56:00;6.90;;;4.50;;
14096;SDS011;7125;48.106;11.544;2023-04-03T07:58:29;7.57;;;4.60;;
14096;SDS011;7125;48.106;11.544;2023-04-03T08:00:56;4.87;;;4.13;;
14096;SDS011;7125;48.106;11.544;2023-04-03T08:03:24;5.13;;;4.43;;
14096;SDS011;7125;48.106;11.544;2023-04-03T08:05:51;5.70;;;4.93;;
14096;SDS011;7125;48.106;11.544;2023-04-03T08:08:19;4.43;;;4.03;;
14096;SDS011;7125;48.106;11.544;2023-04-03T08:10:48;5.07;;;4.30;;
14096;SDS011;7125;48.106;11.544;2023-04-03T08:13:16;4.63;;;4.23;;
14096;SDS011;7125;48.106;11.544;2023-04-03T08:15:45;5.47;;;4.93;;
14096;SDS011;7125;48.106;11.544;2023-04-03T08:18:14;6.07;;;4.40;;
14096;SDS011;7125;48.106;11.544;2023-04-03T08:20:43;6.87;;;4.20;;
14096;SDS011;7125;48.106;11.544;2023-04-03T08:23:10;5.57;;;5.03;;
14096;SDS011;7125;48.106;11.544;2023-04-03T08:25:37;5.53;;;5.03;;
14096;SDS011;7125;48.106;11.544;2023-04-03T08:28:05;5.63;;;4.87;;
14096;SDS011;7125;48.106;11.544;2023-04-03T08:30:32;6.10;;;4.93;;
14096;SDS011;7125;48.106;11.544;2023-04-03T08:33:03;6.50;;;4.87;;
14096;SDS011;7125;48.106;11.544;2023-04-03T08:35:31;5.03;;;4.57;;
14096;SDS011;7125;48.106;11.544;2023-04-03T08:37:58;5.87;;;4.53;;
14096;SDS011;7125;48.106;11.544;2023-04-03T08:40:26;4.90;;;4.40;;
14096;SDS011;7125;48.106;11.544;2023-04-03T08:42:55;7.60;;;4.57;;
14096;SDS011;7125;48.106;11.544;2023-04-03T08:45:35;7.20;;;4.27;;
14096;SDS011;7125;48.106;11.544;2023-04-03T08:48:12;4.90;;;4.17;;
14096;SDS011;7125;48.106;11.544;2023-04-03T08:50:43;8.63;;;5.37;;
14096;SDS011;7125;48.106;11.544;2023-04-03T08:53:14;4.50;;;3.67;;
14096;SDS011;7125;48.106;11.544;2023-04-03T08:55:44;3.83;;;3.50;;
14096;SDS011;7125;48.106;11.544;2023-04-03T08:58:14;6.17;;;4.50;;
14096;SDS011;7125;48.106;11.544;2023-04-03T09:00:45;4.30;;;3.90;;
14096;SDS011;7125;48.106;11.544;2023-04-03T09:03:16;5.03;;;4.27;;
14096;SDS011;7125;48.106;11.544;2023-04-03T09:05:46;4.87;;;3.90;;
14096;SDS011;7125;48.106;11.544;2023-04-03T09:08:21;5.27;;;3.73;;
14096;SDS011;7125;48.106;11.544;2023-04-03T09:10:52;4.20;;;3.80;;
14096;SDS011;7125;48.106;11.544;2023-04-03T09:13:27;4.60;;;4.20;;
14096;SDS011;7125;48.106;11.544;2023-04-03T09:15:57;6.20;;;4.77;;
14096;SDS011;7125;48.106;11.544;2023-04-03T09:18:28;7.50;;;4.63;;
14096;SDS011;7125;48.106;11.544;2023-04-03T09:21:00;4.40;;;4.00;;
14096;SDS011;7125;48.106;11.544;2023-04-03T09:23:34;5.13;;;4.00;;
14096;SDS011;7125;48.106;11.544;2023-04-03T09:26:09;3.70;;;3.30;;
14096;SDS011;7125;48.106;11.544;2023-04-03T09:28:43;4.67;;;4.20;;
14096;SDS011;7125;48.106;11.544;2023-04-03T09:31:14;5.03;;;3.63;;
14096;SDS011;7125;48.106;11.544;2023-04-03T09:33:47;3.53;;;3.13;;
14096;SDS011;7125;48.106;11.544;2023-04-03T09:39:07;5.23;;;3.90;;
14096;SDS011;7125;48.106;11.544;2023-04-03T09:41:38;4.63;;;4.07;;
14096;SDS011;7125;48.106;11.544;2023-04-03T09:44:17;5.43;;;4.43;;
14096;SDS011;7125;48.106;11.544;2023-04-03T09:46:48;4.37;;;3.97;;
14096;SDS011;7125;48.106;11.544;2023-04-03T09:49:17;5.47;;;3.70;;
14096;SDS011;7125;48.106;11.544;2023-04-03T09:51:44;5.97;;;4.17;;
14096;SDS011;7125;48.106;11.544;2023-04-03T09:54:32;5.17;;;3.10;;
14096;SDS011;7125;48.106;11.544;2023-04-03T09:57:05;3.73;;;3.43;;
14096;SDS011;7125;48.106;11.544;2023-04-03T09:59:35;5.73;;;3.50;;
14096;SDS011;7125;48.106;11.544;2023-04-03T10:02:15;4.80;;;3.53;;
14096;SDS011;7125;48.106;11.544;2023-04-03T10:04:51;4.63;;;3.50;;
14096;SDS011;7125;48.106;11.544;2023-04-03T10:07:28;4.23;;;3.77;;
14096;SDS011;7125;48.106;11.544;2023-04-03T10:09:58;3.90;;;3.50;;
14096;SDS011;7125;48.106;11.544;2023-04-03T10:12:28;4.50;;;3.40;;
14096;SDS011;7125;48.106;11.544;2023-04-03T10:14:56;3.10;;;2.87;;
14096;SDS011;7125;48.106;11.544;2023-04-03T10:17:27;3.27;;;2.97;;
14096;SDS011;7125;48.106;11.544;2023-04-03T10:20:05;3.07;;;2.83;;
14096;SDS011;7125;48.106;11.544;2023-04-03T10:22:42;5.93;;;3.87;;
14096;SDS011;7125;48.106;11.544;2023-04-03T10:25:28;4.50;;;2.90;;
14096;SDS011;7125;48.106;11.544;2023-04-03T10:28:03;3.87;;;3.57;;
14096;SDS011;7125;48.106;11.544;2023-04-03T10:30:38;4.43;;;3.33;;
14096;SDS011;7125;48.106;11.544;2023-04-03T10:33:18;4.00;;;3.40;;
14096;SDS011;7125;48.106;11.544;2023-04-03T10:35:56;3.87;;;3.57;;
14096;SDS011;7125;48.106;11.544;2023-04-03T10:38:37;4.33;;;3.97;;
14096;SDS011;7125;48.106;11.544;2023-04-03T10:41:12;6.40;;;4.03;;
14096;SDS011;7125;48.106;11.544;2023-04-03T10:43:44;4.27;;;3.87;;
14096;SDS011;7125;48.106;11.544;2023-04-03T10:46:21;4.57;;;3.90;;
14096;SDS011;7125;48.106;11.544;2023-04-03T10:48:58;4.80;;;4.07;;
14096;SDS011;7125;48.106;11.544;2023-04-03T10:51:37;4.50;;;3.43;;
14096;SDS011;7125;48.106;11.544;2023-04-03T10:54:11;5.47;;;3.03;;
14096;SDS011;7125;48.106;11.544;2023-04-03T10:56:40;5.50;;;2.80;;
14096;SDS011;7125;48.106;11.544;2023-04-03T10:59:15;5.27;;;3.23;;
14096;SDS011;7125;48.106;11.544;2023-04-03T11:01:49;3.47;;;3.17;;
14096;SDS011;7125;48.106;11.544;2023-04-03T11:04:20;3.83;;;2.97;;
14096;SDS011;7125;48.106;11.544;2023-04-03T11:06:53;4.67;;;3.07;;
14096;SDS011;7125;48.106;11.544;2023-04-03T11:09:26;5.73;;;3.10;;
14096;SDS011;7125;48.106;11.544;2023-04-03T11:12:00;4.70;;;3.70;;
14096;SDS011;7125;48.106;11.544;2023-04-03T11:14:31;3.30;;;3.00;;
14096;SDS011;7125;48.106;11.544;2023-04-03T11:17:05;4.57;;;3.37;;
14096;SDS011;7125;48.106;11.544;2023-04-03T11:19:51;4.13;;;2.80;;
14096;SDS011;7125;48.106;11.544;2023-04-03T11:22:35;4.60;;;3.63;;
14096;SDS011;7125;48.106;11.544;2023-04-03T11:25:15;4.70;;;3.53;;
14096;SDS011;7125;48.106;11.544;2023-04-03T11:27:50;5.17;;;3.77;;
14096;SDS011;7125;48.106;11.544;2023-04-03T11:30:43;7.40;;;3.77;;
14096;SDS011;7125;48.106;11.544;2023-04-03T11:33:32;3.60;;;3.30;;
14096;SDS011;7125;48.106;11.544;2023-04-03T11:36:10;5.37;;;3.83;;
14096;SDS011;7125;48.106;11.544;2023-04-03T11:38:43;6.57;;;2.50;;
14096;SDS011;7125;48.106;11.544;2023-04-03T11:41:13;3.63;;;2.67;;
14096;SDS011;7125;48.106;11.544;2023-04-03T11:43:41;3.50;;;2.97;;
14096;SDS011;7125;48.106;11.544;2023-04-03T11:46:21;4.93;;;2.27;;
14096;SDS011;7125;48.106;11.544;2023-04-03T11:48:51;3.40;;;2.60;;
14096;SDS011;7125;48.106;11.544;2023-04-03T12:00:47;2.30;;;2.10;;
14096;SDS011;7125;48.106;11.544;2023-04-03T12:03:29;2.63;;;2.10;;
14096;SDS011;7125;48.106;11.544;2023-04-03T12:06:41;3.17;;;2.70;;
14096;SDS011;7125;48.106;11.544;2023-04-03T12:09:15;4.13;;;2.20;;
14096;SDS011;7125;48.106;11.544;2023-04-03T12:11:51;3.33;;;2.73;;
14096;SDS011;7125;48.106;11.544;2023-04-03T12:14:21;2.00;;;1.60;;
14096;SDS011;7125;48.106;11.544;2023-04-03T12:16:50;2.63;;;2.20;;
14096;SDS011;7125;48.106;11.544;2023-04-03T12:22:11;4.20;;;2.07;;
14096;SDS011;7125;48.106;11.544;2023-04-03T12:24:40;2.10;;;1.47;;
14096;SDS011;7125;48.106;11.544;2023-04-03T12:27:24;1.47;;;1.37;;
14096;SDS011;7125;48.106;11.544;2023-04-03T12:29:55;1.83;;;1.73;;
14096;SDS011;7125;48.106;11.544;2023-04-03T12:32:32;2.07;;;1.63;;
14096;SDS011;7125;48.106;11.544;2023-04-03T12:38:02;2.70;;;1.70;;
14096;SDS011;7125;48.106;11.544;2023-04-03T12:41:00;1.87;;;1.67;;
14096;SDS011;7125;48.106;11.544;2023-04-03T12:43:46;3.50;;;1.60;;
14096;SDS011;7125;48.106;11.544;2023-04-03T12:46:23;2.03;;;1.70;;
14096;SDS011;7125;48.106;11.544;2023-04-03T12:48:54;4.13;;;1.80;;
14096;SDS011;7125;48.106;11.544;2023-04-03T12:51:24;1.97;;;1.40;;
14096;SDS011;7125;48.106;11.544;2023-04-03T12:53:58;7.17;;;1.83;;
14096;SDS011;7125;48.106;11.544;2023-04-03T12:56:29;2.13;;;1.80;;
14096;SDS011;7125;48.106;11.544;2023-04-03T12:59:13;2.63;;;1.73;;
14096;SDS011;7125;48.106;11.544;2023-04-03T13:01:44;2.50;;;1.60;;
14096;SDS011;7125;48.106;11.544;2023-04-03T13:04:20;3.87;;;1.53;;
14096;SDS011;7125;48.106;11.544;2023-04-03T13:06:47;2.47;;;2.27;;
14096;SDS011;7125;48.106;11.544;2023-04-03T13:09:18;3.57;;;1.87;;
14096;SDS011;7125;48.106;11.544;2023-04-03T13:11:48;4.17;;;1.57;;
14096;SDS011;7125;48.106;11.544;2023-04-03T13:14:19;2.10;;;1.90;;
14096;SDS011;7125;48.106;11.544;2023-04-03T13:16:55;2.40;;;1.90;;
14096;SDS011;7125;48.106;11.544;2023-04-03T13:19:26;2.53;;;1.77;;
14096;SDS011;7125;48.106;11.544;2023-04-03T13:21:56;2.47;;;1.50;;
14096;SDS011;7125;48.106;11.544;2023-04-03T13:24:27;2.00;;;1.30;;
14096;SDS011;7125;48.106;11.544;2023-04-03T13:26:55;1.67;;;1.57;;
14096;SDS011;7125;48.106;11.544;2023-04-03T13:29:24;1.80;;;1.70;;
14096;SDS011;7125;48.106;11.544;2023-04-03T13:31:53;2.17;;;1.60;;
14096;SDS011;7125;48.106;11.544;2023-04-03T13:34:22;3.57;;;2.10;;
14096;SDS011;7125;48.106;11.544;2023-04-03T13:36:55;1.63;;;1.50;;
14096;SDS011;7125;48.106;11.544;2023-04-03T13:39:24;3.43;;;1.50;;
14096;SDS011;7125;48.106;11.544;2023-04-03T13:41:54;2.20;;;1.60;;
14096;SDS011;7125;48.106;11.544;2023-04-03T13:44:28;2.60;;;1.47;;
14096;SDS011;7125;48.106;11.544;2023-04-03T13:47:00;3.23;;;1.50;;
14096;SDS011;7125;48.106;11.544;2023-04-03T13:49:42;3.67;;;1.43;;
14096;SDS011;7125;48.106;11.544;2023-04-03T13:52:23;1.83;;;1.73;;
14096;SDS011;7125;48.106;11.544;2023-04-03T13:55:03;2.53;;;1.53;;
14096;SDS011;7125;48.106;11.544;2023-04-03T13:57:51;2.77;;;1.43;;
14096;SDS011;7125;48.106;11.544;2023-04-03T14:03:16;2.10;;;1.47;;
14096;SDS011;7125;48.106;11.544;2023-04-03T14:05:50;4.70;;;1.83;;
14096;SDS011;7125;48.106;11.544;2023-04-03T14:08:20;2.97;;;2.17;;
14096;SDS011;7125;48.106;11.544;2023-04-03T14:10:48;2.20;;;2.00;;
14096;SDS011;7125;48.106;11.544;2023-04-03T14:13:17;2.47;;;2.23;;
14096;SDS011;7125;48.106;11.544;2023-04-03T14:15:47;3.60;;;2.60;;
14096;SDS011;7125;48.106;11.544;2023-04-03T14:18:17;4.60;;;1.90;;
14096;SDS011;7125;48.106;11.544;2023-04-03T14:20:49;1.93;;;1.30;;
14096;SDS011;7125;48.106;11.544;2023-04-03T14:23:16;2.83;;;2.10;;
14096;SDS011;7125;48.106;11.544;2023-04-03T14:25:46;4.13;;;3.20;;
14096;SDS011;7125;48.106;11.544;2023-04-03T14:28:15;2.67;;;2.37;;
14096;SDS011;7125;48.106;11.544;2023-04-03T14:30:45;2.23;;;1.67;;
14096;SDS011;7125;48.106;11.544;2023-04-03T14:33:15;2.27;;;2.07;;
14096;SDS011;7125;48.106;11.544;2023-04-03T14:35:45;2.40;;;2.20;;
14096;SDS011;7125;48.106;11.544;2023-04-03T14:38:22;3.67;;;1.40;;
14096;SDS011;7125;48.106;11.544;2023-04-03T14:40:51;2.77;;;1.50;;
14096;SDS011;7125;48.106;11.544;2023-04-03T14:43:19;1.77;;;1.13;;
14096;SDS011;7125;48.106;11.544;2023-04-03T14:45:50;1.73;;;1.30;;
14096;SDS011;7125;48.106;11.544;2023-04-03T14:48:20;3.27;;;1.80;;
14096;SDS011;7125;48.106;11.544;2023-04-03T14:50:58;2.37;;;1.40;;
14096;SDS011;7125;48.106;11.544;2023-04-03T14:53:25;2.27;;;1.50;;
14096;SDS011;7125;48.106;11.544;2023-04-03T14:55:54;2.70;;;1.40;;
14096;SDS011;7125;48.106;11.544;2023-04-03T14:58:24;2.43;;;1.60;;
14096;SDS011;7125;48.106;11.544;2023-04-03T15:00:51;2.90;;;1.40;;
14096;SDS011;7125;48.106;11.544;2023-04-03T15:03:22;1.73;;;1.30;;
14096;SDS011;7125;48.106;11.544;2023-04-03T15:05:49;1.37;;;1.17;;
14096;SDS011;7125;48.106;11.544;2023-04-03T15:08:18;1.77;;;1.57;;
14096;SDS011;7125;48.106;11.544;2023-04-03T15:10:47;2.50;;;1.00;;
14096;SDS011;7125;48.106;11.544;2023-04-03T15:13:15;1.93;;;1.53;;
14096;SDS011;7125;48.106;11.544;2023-04-03T15:15:42;2.60;;;1.40;;
14096;SDS011;7125;48.106;11.544;2023-04-03T15:18:10;1.70;;;1.13;;
14096;SDS011;7125;48.106;11.544;2023-04-03T15:20:44;1.77;;;1.20;;
14096;SDS011;7125;48.106;11.544;2023-04-03T15:23:12;1.80;;;1.13;;
14096;SDS011;7125;48.106;11.544;2023-04-03T15:25:42;5.57;;;1.87;;
14096;SDS011;7125;48.106;11.544;2023-04-03T15:28:09;3.53;;;1.30;;
14096;SDS011;7125;48.106;11.544;2023-04-03T15:30:43;2.90;;;1.13;;
14096;SDS011;7125;48.106;11.544;2023-04-03T15:33:10;2.50;;;1.87;;
14096;SDS011;7125;48.106;11.544;2023-04-03T15:35:38;1.37;;;1.27;;
14096;SDS011;7125;48.106;11.544;2023-04-03T15:38:06;1.87;;;0.83;;
14096;SDS011;7125;48.106;11.544;2023-04-03T15:40:36;1.53;;;1.30;;
14096;SDS011;7125;48.106;11.544;2023-04-03T15:43:04;2.47;;;1.50;;
14096;SDS011;7125;48.106;11.544;2023-04-03T15:45:32;4.20;;;1.50;;
14096;SDS011;7125;48.106;11.544;2023-04-03T15:48:04;1.37;;;1.20;;
14096;SDS011;7125;48.106;11.544;2023-04-03T15:50:33;0.80;;;0.80;;
14096;SDS011;7125;48.106;11.544;2023-04-03T15:53:01;4.10;;;1.10;;
14096;SDS011;7125;48.106;11.544;2023-04-03T15:55:33;1.73;;;1.13;;